sensor_id;sensor_type;location;lat;lon;timestamp;temperature;humidity
30206;DHT22;17010;51.306;3.150;2023-04-06T00:01:02;8.70;99.90
30206;DHT22;17010;51.306;3.150;2023-04-06T00:03:28;8.70;99.90
30206;DHT22;17010;51.306;3.150;2023-04-06T00:05:55;8.70;99.90
30206;DHT22;17010;51.306;3.150;2023-04-06T00:08:21;8.70;99.90
30206;DHT22;17010;51.306;3.150;2023-04-06T00:10:49;8.70;99.90
30206;DHT22;17010;51.306;3.150;2023-04-06T00:13:16;8.70;99.90
30206;DHT22;17010;51.306;3.150;2023-04-06T00:15:42;8.70;99.90
30206;DHT22;17010;51.306;3.150;2023-04-06T00:18:08;8.70;99.90
30206;DHT22;17010;51.306;3.150;2023-04-06T00:20:34;8.70;99.90
30206;DHT22;17010;51.306;3.150;2023-04-06T00:23:00;8.70;99.90
30206;DHT22;17010;51.306;3.150;2023-04-06T00:25:27;8.70;99.90
30206;DHT22;17010;51.306;3.150;2023-04-06T00:27:53;8.70;99.90
30206;DHT22;17010;51.306;3.150;2023-04-06T00:30:19;8.80;99.90
30206;DHT22;17010;51.306;3.150;2023-04-06T00:32:46;8.70;99.90
30206;DHT22;17010;51.306;3.150;2023-04-06T00:35:12;8.70;99.90
30206;DHT22;17010;51.306;3.150;2023-04-06T00:37:38;8.70;99.90
30206;DHT22;17010;51.306;3.150;2023-04-06T00:40:05;8.60;99.90
30206;DHT22;17010;51.306;3.150;2023-04-06T00:42:32;8.60;99.90
30206;DHT22;17010;51.306;3.150;2023-04-06T00:44:59;8.60;99.90
30206;DHT22;17010;51.306;3.150;2023-04-06T00:47:26;8.60;99.90
30206;DHT22;17010;51.306;3.150;2023-04-06T00:49:53;8.60;99.90
30206;DHT22;17010;51.306;3.150;2023-04-06T00:52:20;8.50;99.90
30206;DHT22;17010;51.306;3.150;2023-04-06T00:54:47;8.50;99.90
30206;DHT22;17010;51.306;3.150;2023-04-06T00:57:13;8.50;99.90
30206;DHT22;17010;51.306;3.150;2023-04-06T00:59:40;8.50;99.90
30206;DHT22;17010;51.306;3.150;2023-04-06T01:02:07;8.50;99.90
30206;DHT22;17010;51.306;3.150;2023-04-06T01:04:33;8.50;99.90
30206;DHT22;17010;51.306;3.150;2023-04-06T01:07:00;8.50;99.90
30206;DHT22;17010;51.306;3.150;2023-04-06T01:09:30;8.50;99.90
30206;DHT22;17010;51.306;3.150;2023-04-06T01:11:59;8.50;99.90
30206;DHT22;17010;51.306;3.150;2023-04-06T01:14:26;8.40;99.90
30206;DHT22;17010;51.306;3.150;2023-04-06T01:16:52;8.40;99.90
30206;DHT22;17010;51.306;3.150;2023-04-06T01:19:19;8.40;99.90
30206;DHT22;17010;51.306;3.150;2023-04-06T01:21:46;8.40;99.90
30206;DHT22;17010;51.306;3.150;2023-04-06T01:24:15;8.40;99.90
30206;DHT22;17010;51.306;3.150;2023-04-06T01:26:41;8.40;99.90
30206;DHT22;17010;51.306;3.150;2023-04-06T01:29:07;8.40;99.90
30206;DHT22;17010;51.306;3.150;2023-04-06T01:31:34;8.40;99.90
30206;DHT22;17010;51.306;3.150;2023-04-06T01:34:00;8.40;99.90
30206;DHT22;17010;51.306;3.150;2023-04-06T01:36:26;8.50;99.90
30206;DHT22;17010;51.306;3.150;2023-04-06T01:38:53;8.40;99.90
30206;DHT22;17010;51.306;3.150;2023-04-06T01:41:19;8.40;99.90
30206;DHT22;17010;51.306;3.150;2023-04-06T01:43:47;8.40;99.90
30206;DHT22;17010;51.306;3.150;2023-04-06T01:46:13;8.40;99.90
30206;DHT22;17010;51.306;3.150;2023-04-06T01:48:40;8.40;99.90
30206;DHT22;17010;51.306;3.150;2023-04-06T01:51:06;8.40;99.90
30206;DHT22;17010;51.306;3.150;2023-04-06T01:53:32;8.40;99.90
30206;DHT22;17010;51.306;3.150;2023-04-06T01:55:59;8.40;99.90
30206;DHT22;17010;51.306;3.150;2023-04-06T01:58:25;8.40;99.90
30206;DHT22;17010;51.306;3.150;2023-04-06T02:00:52;8.40;99.90
30206;DHT22;17010;51.306;3.150;2023-04-06T02:03:18;8.40;99.90
30206;DHT22;17010;51.306;3.150;2023-04-06T02:05:44;8.40;99.90
30206;DHT22;17010;51.306;3.150;2023-04-06T02:08:10;8.40;99.90
30206;DHT22;17010;51.306;3.150;2023-04-06T02:10:36;8.30;99.90
30206;DHT22;17010;51.306;3.150;2023-04-06T02:13:03;8.40;99.90
30206;DHT22;17010;51.306;3.150;2023-04-06T02:15:29;8.40;99.90
30206;DHT22;17010;51.306;3.150;2023-04-06T02:17:55;8.30;99.90
30206;DHT22;17010;51.306;3.150;2023-04-06T02:20:21;8.40;99.90
30206;DHT22;17010;51.306;3.150;2023-04-06T02:22:48;8.30;99.90
30206;DHT22;17010;51.306;3.150;2023-04-06T02:25:14;8.30;99.90
30206;DHT22;17010;51.306;3.150;2023-04-06T02:27:40;8.30;99.90
30206;DHT22;17010;51.306;3.150;2023-04-06T02:30:07;8.30;99.90
30206;DHT22;17010;51.306;3.150;2023-04-06T02:32:33;8.40;99.90
30206;DHT22;17010;51.306;3.150;2023-04-06T02:34:59;8.30;99.90
30206;DHT22;17010;51.306;3.150;2023-04-06T02:37:26;8.30;99.90
30206;DHT22;17010;51.306;3.150;2023-04-06T02:39:52;8.30;99.90
30206;DHT22;17010;51.306;3.150;2023-04-06T02:42:18;8.30;99.90
30206;DHT22;17010;51.306;3.150;2023-04-06T02:44:45;8.30;99.90
30206;DHT22;17010;51.306;3.150;2023-04-06T02:47:11;8.30;99.90
30206;DHT22;17010;51.306;3.150;2023-04-06T02:49:38;8.30;99.90
30206;DHT22;17010;51.306;3.150;2023-04-06T02:52:04;8.40;99.90
30206;DHT22;17010;51.306;3.150;2023-04-06T02:54:30;8.30;99.90
30206;DHT22;17010;51.306;3.150;2023-04-06T02:56:56;8.30;99.90
30206;DHT22;17010;51.306;3.150;2023-04-06T02:59:23;8.30;99.90
30206;DHT22;17010;51.306;3.150;2023-04-06T03:01:49;8.30;99.90
30206;DHT22;17010;51.306;3.150;2023-04-06T03:04:15;8.30;99.90
30206;DHT22;17010;51.306;3.150;2023-04-06T03:06:41;8.30;99.90
30206;DHT22;17010;51.306;3.150;2023-04-06T03:09:08;8.30;99.90
30206;DHT22;17010;51.306;3.150;2023-04-06T03:11:34;8.30;99.90
30206;DHT22;17010;51.306;3.150;2023-04-06T03:14:01;8.30;99.90
30206;DHT22;17010;51.306;3.150;2023-04-06T03:16:27;8.30;99.90
30206;DHT22;17010;51.306;3.150;2023-04-06T03:18:53;8.30;99.90
30206;DHT22;17010;51.306;3.150;2023-04-06T03:21:19;8.30;99.90
30206;DHT22;17010;51.306;3.150;2023-04-06T03:23:45;8.30;99.90
30206;DHT22;17010;51.306;3.150;2023-04-06T03:26:12;8.30;99.90
30206;DHT22;17010;51.306;3.150;2023-04-06T03:28:38;8.30;99.90
30206;DHT22;17010;51.306;3.150;2023-04-06T03:31:04;8.30;99.90
30206;DHT22;17010;51.306;3.150;2023-04-06T03:33:30;8.30;99.90
30206;DHT22;17010;51.306;3.150;2023-04-06T03:35:56;8.40;99.90
30206;DHT22;17010;51.306;3.150;2023-04-06T03:38:23;8.30;99.90
30206;DHT22;17010;51.306;3.150;2023-04-06T03:40:49;8.30;99.90
30206;DHT22;17010;51.306;3.150;2023-04-06T03:43:15;8.40;99.90
30206;DHT22;17010;51.306;3.150;2023-04-06T03:45:41;8.40;99.90
30206;DHT22;17010;51.306;3.150;2023-04-06T03:48:07;8.30;99.90
30206;DHT22;17010;51.306;3.150;2023-04-06T03:50:34;8.30;99.90
30206;DHT22;17010;51.306;3.150;2023-04-06T03:53:00;8.40;99.90
30206;DHT22;17010;51.306;3.150;2023-04-06T03:55:29;8.40;99.90
30206;DHT22;17010;51.306;3.150;2023-04-06T03:57:55;8.40;99.90
30206;DHT22;17010;51.306;3.150;2023-04-06T04:00:23;8.40;99.90
30206;DHT22;17010;51.306;3.150;2023-04-06T04:02:49;8.40;99.90
30206;DHT22;17010;51.306;3.150;2023-04-06T04:05:15;8.40;99.90
30206;DHT22;17010;51.306;3.150;2023-04-06T04:07:42;8.40;99.90
30206;DHT22;17010;51.306;3.150;2023-04-06T04:10:08;8.40;99.90
30206;DHT22;17010;51.306;3.150;2023-04-06T04:12:34;8.40;99.90
30206;DHT22;17010;51.306;3.150;2023-04-06T04:15:01;8.40;99.90
30206;DHT22;17010;51.306;3.150;2023-04-06T04:17:27;8.40;99.90
30206;DHT22;17010;51.306;3.150;2023-04-06T04:19:53;8.50;99.90
30206;DHT22;17010;51.306;3.150;2023-04-06T04:22:19;8.50;99.90
30206;DHT22;17010;51.306;3.150;2023-04-06T04:24:45;8.50;99.90
30206;DHT22;17010;51.306;3.150;2023-04-06T04:27:12;8.50;99.90
30206;DHT22;17010;51.306;3.150;2023-04-06T04:29:38;8.50;99.90
30206;DHT22;17010;51.306;3.150;2023-04-06T04:32:04;8.40;99.90
30206;DHT22;17010;51.306;3.150;2023-04-06T04:34:31;8.40;99.90
30206;DHT22;17010;51.306;3.150;2023-04-06T04:36:57;8.40;99.90
30206;DHT22;17010;51.306;3.150;2023-04-06T04:39:23;8.50;99.90
30206;DHT22;17010;51.306;3.150;2023-04-06T04:41:49;8.40;99.90
30206;DHT22;17010;51.306;3.150;2023-04-06T04:44:16;8.40;99.90
30206;DHT22;17010;51.306;3.150;2023-04-06T04:46:42;8.40;99.90
30206;DHT22;17010;51.306;3.150;2023-04-06T04:49:08;8.40;99.90
30206;DHT22;17010;51.306;3.150;2023-04-06T04:51:34;8.40;99.90
30206;DHT22;17010;51.306;3.150;2023-04-06T04:54:02;8.40;99.90
30206;DHT22;17010;51.306;3.150;2023-04-06T04:56:28;8.40;99.90
30206;DHT22;17010;51.306;3.150;2023-04-06T04:58:55;8.30;99.90
30206;DHT22;17010;51.306;3.150;2023-04-06T05:01:21;8.30;99.90
30206;DHT22;17010;51.306;3.150;2023-04-06T05:03:47;8.30;99.90
30206;DHT22;17010;51.306;3.150;2023-04-06T05:06:14;8.30;99.90
30206;DHT22;17010;51.306;3.150;2023-04-06T05:08:41;8.30;99.90
30206;DHT22;17010;51.306;3.150;2023-04-06T05:11:08;8.30;99.90
30206;DHT22;17010;51.306;3.150;2023-04-06T05:16:58;8.20;99.90
30206;DHT22;17010;51.306;3.150;2023-04-06T05:19:24;8.20;99.90
30206;DHT22;17010;51.306;3.150;2023-04-06T05:21:50;8.20;99.90
30206;DHT22;17010;51.306;3.150;2023-04-06T05:24:17;8.10;99.90
30206;DHT22;17010;51.306;3.150;2023-04-06T05:26:43;8.10;99.90
30206;DHT22;17010;51.306;3.150;2023-04-06T05:29:10;8.10;99.90
30206;DHT22;17010;51.306;3.150;2023-04-06T05:31:37;8.10;99.90
30206;DHT22;17010;51.306;3.150;2023-04-06T05:34:03;8.10;99.90
30206;DHT22;17010;51.306;3.150;2023-04-06T05:36:29;8.00;99.90
30206;DHT22;17010;51.306;3.150;2023-04-06T05:38:58;8.00;99.90
30206;DHT22;17010;51.306;3.150;2023-04-06T05:41:24;8.00;99.90
30206;DHT22;17010;51.306;3.150;2023-04-06T05:43:51;8.00;99.90
30206;DHT22;17010;51.306;3.150;2023-04-06T05:46:18;8.00;99.90
30206;DHT22;17010;51.306;3.150;2023-04-06T05:48:44;8.10;99.90
30206;DHT22;17010;51.306;3.150;2023-04-06T05:51:11;8.00;99.90
30206;DHT22;17010;51.306;3.150;2023-04-06T05:53:37;8.00;99.90
30206;DHT22;17010;51.306;3.150;2023-04-06T05:56:04;8.00;99.90
30206;DHT22;17010;51.306;3.150;2023-04-06T05:58:31;8.00;99.90
30206;DHT22;17010;51.306;3.150;2023-04-06T06:01:01;8.00;99.90
30206;DHT22;17010;51.306;3.150;2023-04-06T06:03:29;7.90;99.90
30206;DHT22;17010;51.306;3.150;2023-04-06T06:06:02;8.00;99.90
30206;DHT22;17010;51.306;3.150;2023-04-06T06:08:30;8.00;99.90
30206;DHT22;17010;51.306;3.150;2023-04-06T06:10:56;8.00;99.90
30206;DHT22;17010;51.306;3.150;2023-04-06T06:13:23;8.00;99.90
30206;DHT22;17010;51.306;3.150;2023-04-06T06:15:50;8.00;99.90
30206;DHT22;17010;51.306;3.150;2023-04-06T06:18:16;8.00;99.90
30206;DHT22;17010;51.306;3.150;2023-04-06T06:20:42;8.00;99.90
30206;DHT22;17010;51.306;3.150;2023-04-06T06:23:09;8.00;99.90
30206;DHT22;17010;51.306;3.150;2023-04-06T06:25:35;8.00;99.90
30206;DHT22;17010;51.306;3.150;2023-04-06T06:28:02;8.00;99.90
30206;DHT22;17010;51.306;3.150;2023-04-06T06:30:28;8.00;99.90
30206;DHT22;17010;51.306;3.150;2023-04-06T06:32:55;8.00;99.90
30206;DHT22;17010;51.306;3.150;2023-04-06T06:35:21;8.00;99.90
30206;DHT22;17010;51.306;3.150;2023-04-06T06:37:48;8.10;99.90
30206;DHT22;17010;51.306;3.150;2023-04-06T06:40:14;8.00;99.90
30206;DHT22;17010;51.306;3.150;2023-04-06T06:42:43;8.00;99.90
30206;DHT22;17010;51.306;3.150;2023-04-06T06:48:26;8.00;99.90
30206;DHT22;17010;51.306;3.150;2023-04-06T06:51:35;8.00;99.90
30206;DHT22;17010;51.306;3.150;2023-04-06T07:31:15;8.30;99.90
30206;DHT22;17010;51.306;3.150;2023-04-06T07:33:42;8.30;99.90
30206;DHT22;17010;51.306;3.150;2023-04-06T07:36:09;8.30;99.90
30206;DHT22;17010;51.306;3.150;2023-04-06T07:38:36;8.30;99.90
30206;DHT22;17010;51.306;3.150;2023-04-06T07:41:04;8.30;99.90
30206;DHT22;17010;51.306;3.150;2023-04-06T07:43:31;8.30;99.90
30206;DHT22;17010;51.306;3.150;2023-04-06T07:45:57;8.40;99.90
30206;DHT22;17010;51.306;3.150;2023-04-06T07:48:25;8.40;99.90
30206;DHT22;17010;51.306;3.150;2023-04-06T11:06:49;10.40;99.90
30206;DHT22;17010;51.306;3.150;2023-04-06T11:09:29;10.40;99.90
30206;DHT22;17010;51.306;3.150;2023-04-06T11:11:57;10.50;99.90
30206;DHT22;17010;51.306;3.150;2023-04-06T11:14:30;10.50;99.90
30206;DHT22;17010;51.306;3.150;2023-04-06T11:16:57;10.40;99.90
30206;DHT22;17010;51.306;3.150;2023-04-06T11:19:25;10.50;99.90
30206;DHT22;17010;51.306;3.150;2023-04-06T11:22:32;10.50;99.90
30206;DHT22;17010;51.306;3.150;2023-04-06T11:25:09;10.60;99.90
30206;DHT22;17010;51.306;3.150;2023-04-06T11:27:38;10.70;99.90
30206;DHT22;17010;51.306;3.150;2023-04-06T12:31:03;12.20;99.90
30206;DHT22;17010;51.306;3.150;2023-04-06T17:35:45;10.90;99.90
30206;DHT22;17010;51.306;3.150;2023-04-06T17:38:11;10.80;99.90
30206;DHT22;17010;51.306;3.150;2023-04-06T17:40:38;10.80;99.90
30206;DHT22;17010;51.306;3.150;2023-04-06T17:43:08;10.70;99.90
30206;DHT22;17010;51.306;3.150;2023-04-06T17:45:38;10.70;99.90
30206;DHT22;17010;51.306;3.150;2023-04-06T17:48:07;10.60;99.90
30206;DHT22;17010;51.306;3.150;2023-04-06T17:50:38;10.60;99.90
30206;DHT22;17010;51.306;3.150;2023-04-06T17:53:05;10.60;99.90
30206;DHT22;17010;51.306;3.150;2023-04-06T17:55:36;10.70;99.90
30206;DHT22;17010;51.306;3.150;2023-04-06T17:58:06;10.70;99.90
30206;DHT22;17010;51.306;3.150;2023-04-06T18:00:34;10.70;99.90
30206;DHT22;17010;51.306;3.150;2023-04-06T18:03:04;10.70;99.90
30206;DHT22;17010;51.306;3.150;2023-04-06T18:05:32;10.60;99.90
30206;DHT22;17010;51.306;3.150;2023-04-06T18:08:02;10.60;99.90
30206;DHT22;17010;51.306;3.150;2023-04-06T18:10:35;10.70;99.90
30206;DHT22;17010;51.306;3.150;2023-04-06T18:13:07;10.60;99.90
30206;DHT22;17010;51.306;3.150;2023-04-06T18:16:00;10.60;99.90
30206;DHT22;17010;51.306;3.150;2023-04-06T18:18:35;10.50;99.90
30206;DHT22;17010;51.306;3.150;2023-04-06T18:21:07;10.50;99.90
30206;DHT22;17010;51.306;3.150;2023-04-06T18:30:08;10.40;99.90
30206;DHT22;17010;51.306;3.150;2023-04-06T18:32:58;10.40;99.90
30206;DHT22;17010;51.306;3.150;2023-04-06T18:35:25;10.40;99.90
30206;DHT22;17010;51.306;3.150;2023-04-06T18:37:59;10.30;99.90
30206;DHT22;17010;51.306;3.150;2023-04-06T18:40:35;10.40;99.90
30206;DHT22;17010;51.306;3.150;2023-04-06T18:43:04;10.20;99.90
30206;DHT22;17010;51.306;3.150;2023-04-06T18:45:32;10.30;99.90
30206;DHT22;17010;51.306;3.150;2023-04-06T18:48:06;10.20;99.90
30206;DHT22;17010;51.306;3.150;2023-04-06T18:50:36;10.20;99.90
30206;DHT22;17010;51.306;3.150;2023-04-06T18:53:03;10.20;99.90
30206;DHT22;17010;51.306;3.150;2023-04-06T18:55:31;10.20;99.90
30206;DHT22;17010;51.306;3.150;2023-04-06T18:57:58;10.20;99.90
30206;DHT22;17010;51.306;3.150;2023-04-06T19:00:25;10.20;99.90
30206;DHT22;17010;51.306;3.150;2023-04-06T19:02:55;10.10;99.90
30206;DHT22;17010;51.306;3.150;2023-04-06T19:05:24;10.10;99.90
30206;DHT22;17010;51.306;3.150;2023-04-06T19:07:50;10.10;99.90
30206;DHT22;17010;51.306;3.150;2023-04-06T19:10:17;10.00;99.90
30206;DHT22;17010;51.306;3.150;2023-04-06T19:12:44;9.90;99.90
30206;DHT22;17010;51.306;3.150;2023-04-06T19:15:11;9.90;99.90
30206;DHT22;17010;51.306;3.150;2023-04-06T19:17:37;9.90;99.90
30206;DHT22;17010;51.306;3.150;2023-04-06T19:20:05;9.90;99.90
30206;DHT22;17010;51.306;3.150;2023-04-06T19:22:34;9.80;99.90
30206;DHT22;17010;51.306;3.150;2023-04-06T19:25:02;9.80;99.90
30206;DHT22;17010;51.306;3.150;2023-04-06T19:27:28;9.70;99.90
30206;DHT22;17010;51.306;3.150;2023-04-06T19:29:54;9.70;99.90
30206;DHT22;17010;51.306;3.150;2023-04-06T19:32:22;9.70;99.90
30206;DHT22;17010;51.306;3.150;2023-04-06T19:34:50;9.70;99.90
30206;DHT22;17010;51.306;3.150;2023-04-06T19:37:17;9.60;99.90
30206;DHT22;17010;51.306;3.150;2023-04-06T19:39:43;9.60;99.90
30206;DHT22;17010;51.306;3.150;2023-04-06T19:42:11;9.60;99.90
30206;DHT22;17010;51.306;3.150;2023-04-06T19:44:39;9.50;99.90
30206;DHT22;17010;51.306;3.150;2023-04-06T19:47:05;9.50;99.90
30206;DHT22;17010;51.306;3.150;2023-04-06T19:49:31;9.50;99.90
30206;DHT22;17010;51.306;3.150;2023-04-06T19:51:58;9.40;99.90
30206;DHT22;17010;51.306;3.150;2023-04-06T19:54:24;9.40;99.90
30206;DHT22;17010;51.306;3.150;2023-04-06T19:56:51;9.40;99.90
30206;DHT22;17010;51.306;3.150;2023-04-06T19:59:18;9.40;99.90
30206;DHT22;17010;51.306;3.150;2023-04-06T20:01:46;9.40;99.90
30206;DHT22;17010;51.306;3.150;2023-04-06T20:04:12;9.40;99.90
30206;DHT22;17010;51.306;3.150;2023-04-06T20:06:39;9.40;99.90
30206;DHT22;17010;51.306;3.150;2023-04-06T20:09:06;9.40;99.90
30206;DHT22;17010;51.306;3.150;2023-04-06T20:11:33;9.40;99.90
30206;DHT22;17010;51.306;3.150;2023-04-06T20:14:01;9.40;99.90
30206;DHT22;17010;51.306;3.150;2023-04-06T20:16:27;9.40;99.90
30206;DHT22;17010;51.306;3.150;2023-04-06T20:18:53;9.40;99.90
30206;DHT22;17010;51.306;3.150;2023-04-06T20:21:20;9.30;99.90
30206;DHT22;17010;51.306;3.150;2023-04-06T20:23:46;9.40;99.90
30206;DHT22;17010;51.306;3.150;2023-04-06T20:26:13;9.40;99.90
30206;DHT22;17010;51.306;3.150;2023-04-06T20:28:39;9.40;99.90
30206;DHT22;17010;51.306;3.150;2023-04-06T20:31:06;9.30;99.90
30206;DHT22;17010;51.306;3.150;2023-04-06T20:33:36;9.30;99.90
30206;DHT22;17010;51.306;3.150;2023-04-06T20:36:02;9.30;99.90
30206;DHT22;17010;51.306;3.150;2023-04-06T20:38:29;9.30;99.90
30206;DHT22;17010;51.306;3.150;2023-04-06T20:40:55;9.40;99.90
30206;DHT22;17010;51.306;3.150;2023-04-06T20:43:23;9.30;99.90
30206;DHT22;17010;51.306;3.150;2023-04-06T20:45:51;9.30;99.90
30206;DHT22;17010;51.306;3.150;2023-04-06T20:48:18;9.20;99.90
30206;DHT22;17010;51.306;3.150;2023-04-06T20:50:44;9.20;99.90
30206;DHT22;17010;51.306;3.150;2023-04-06T20:53:11;9.20;99.90
30206;DHT22;17010;51.306;3.150;2023-04-06T20:55:40;9.10;99.90
30206;DHT22;17010;51.306;3.150;2023-04-06T20:58:07;9.10;99.90
30206;DHT22;17010;51.306;3.150;2023-04-06T21:00:34;9.10;99.90
30206;DHT22;17010;51.306;3.150;2023-04-06T21:03:01;9.00;99.90
30206;DHT22;17010;51.306;3.150;2023-04-06T21:05:27;9.00;99.90
30206;DHT22;17010;51.306;3.150;2023-04-06T21:07:53;9.00;99.90
30206;DHT22;17010;51.306;3.150;2023-04-06T21:10:20;9.10;99.90
30206;DHT22;17010;51.306;3.150;2023-04-06T21:12:49;9.00;99.90
30206;DHT22;17010;51.306;3.150;2023-04-06T21:15:15;9.00;99.90
30206;DHT22;17010;51.306;3.150;2023-04-06T21:17:42;8.90;99.90
30206;DHT22;17010;51.306;3.150;2023-04-06T21:20:11;8.90;99.90
30206;DHT22;17010;51.306;3.150;2023-04-06T21:22:38;8.90;99.90
30206;DHT22;17010;51.306;3.150;2023-04-06T21:25:04;8.90;99.90
30206;DHT22;17010;51.306;3.150;2023-04-06T21:27:31;8.90;99.90
30206;DHT22;17010;51.306;3.150;2023-04-06T21:29:57;8.80;99.90
30206;DHT22;17010;51.306;3.150;2023-04-06T21:32:24;8.70;99.90
30206;DHT22;17010;51.306;3.150;2023-04-06T21:34:51;8.60;99.90
30206;DHT22;17010;51.306;3.150;2023-04-06T21:37:17;8.60;99.90
30206;DHT22;17010;51.306;3.150;2023-04-06T21:39:43;8.50;99.90
30206;DHT22;17010;51.306;3.150;2023-04-06T21:42:10;8.60;99.90
30206;DHT22;17010;51.306;3.150;2023-04-06T21:44:36;8.60;99.90
30206;DHT22;17010;51.306;3.150;2023-04-06T21:47:03;8.60;99.90
30206;DHT22;17010;51.306;3.150;2023-04-06T21:49:29;8.70;99.90
30206;DHT22;17010;51.306;3.150;2023-04-06T21:51:56;8.70;99.90
30206;DHT22;17010;51.306;3.150;2023-04-06T21:54:22;8.70;99.90
30206;DHT22;17010;51.306;3.150;2023-04-06T21:56:48;8.70;99.90
30206;DHT22;17010;51.306;3.150;2023-04-06T21:59:15;8.70;99.90
30206;DHT22;17010;51.306;3.150;2023-04-06T22:01:41;8.80;99.90
30206;DHT22;17010;51.306;3.150;2023-04-06T22:04:08;8.80;99.90
30206;DHT22;17010;51.306;3.150;2023-04-06T22:06:35;8.80;99.90
30206;DHT22;17010;51.306;3.150;2023-04-06T22:09:02;8.80;99.90
30206;DHT22;17010;51.306;3.150;2023-04-06T22:11:30;8.70;99.90
30206;DHT22;17010;51.306;3.150;2023-04-06T22:13:57;8.80;99.90
30206;DHT22;17010;51.306;3.150;2023-04-06T22:16:23;8.80;99.90
30206;DHT22;17010;51.306;3.150;2023-04-06T22:18:50;8.90;99.90
30206;DHT22;17010;51.306;3.150;2023-04-06T22:21:16;8.90;99.90
30206;DHT22;17010;51.306;3.150;2023-04-06T22:23:42;9.00;99.90
30206;DHT22;17010;51.306;3.150;2023-04-06T22:26:09;9.00;99.90
30206;DHT22;17010;51.306;3.150;2023-04-06T22:28:36;9.00;99.90
30206;DHT22;17010;51.306;3.150;2023-04-06T22:31:02;9.10;99.90
30206;DHT22;17010;51.306;3.150;2023-04-06T22:33:29;9.10;99.90
30206;DHT22;17010;51.306;3.150;2023-04-06T22:35:55;9.00;99.90
30206;DHT22;17010;51.306;3.150;2023-04-06T22:38:22;9.00;99.90
30206;DHT22;17010;51.306;3.150;2023-04-06T22:40:49;9.00;99.90
30206;DHT22;17010;51.306;3.150;2023-04-06T22:43:18;9.00;99.90
30206;DHT22;17010;51.306;3.150;2023-04-06T22:45:45;9.00;99.90
30206;DHT22;17010;51.306;3.150;2023-04-06T22:48:12;9.00;99.90
30206;DHT22;17010;51.306;3.150;2023-04-06T22:50:39;9.10;99.90
30206;DHT22;17010;51.306;3.150;2023-04-06T22:53:06;9.10;99.90
30206;DHT22;17010;51.306;3.150;2023-04-06T22:55:33;9.00;99.90
30206;DHT22;17010;51.306;3.150;2023-04-06T22:58:00;9.00;99.90
30206;DHT22;17010;51.306;3.150;2023-04-06T23:00:34;9.00;99.90
30206;DHT22;17010;51.306;3.150;2023-04-06T23:03:01;9.10;99.90
30206;DHT22;17010;51.306;3.150;2023-04-06T23:05:31;9.00;99.90
30206;DHT22;17010;51.306;3.150;2023-04-06T23:07:57;9.10;99.90
30206;DHT22;17010;51.306;3.150;2023-04-06T23:10:24;9.10;99.90
30206;DHT22;17010;51.306;3.150;2023-04-06T23:12:51;9.10;99.90
30206;DHT22;17010;51.306;3.150;2023-04-06T23:15:17;9.10;99.90
30206;DHT22;17010;51.306;3.150;2023-04-06T23:17:44;9.10;99.90
30206;DHT22;17010;51.306;3.150;2023-04-06T23:20:11;9.10;99.90
30206;DHT22;17010;51.306;3.150;2023-04-06T23:22:37;9.20;99.90
30206;DHT22;17010;51.306;3.150;2023-04-06T23:25:04;9.20;99.90
30206;DHT22;17010;51.306;3.150;2023-04-06T23:27:32;9.20;99.90
30206;DHT22;17010;51.306;3.150;2023-04-06T23:29:58;9.20;99.90
30206;DHT22;17010;51.306;3.150;2023-04-06T23:32:25;9.20;99.90
30206;DHT22;17010;51.306;3.150;2023-04-06T23:34:51;9.20;99.90
30206;DHT22;17010;51.306;3.150;2023-04-06T23:37:18;9.20;99.90
30206;DHT22;17010;51.306;3.150;2023-04-06T23:39:44;9.20;99.90
30206;DHT22;17010;51.306;3.150;2023-04-06T23:42:13;9.30;99.90
30206;DHT22;17010;51.306;3.150;2023-04-06T23:44:39;9.30;99.90
30206;DHT22;17010;51.306;3.150;2023-04-06T23:47:06;9.30;99.90
30206;DHT22;17010;51.306;3.150;2023-04-06T23:49:32;9.30;99.90
30206;DHT22;17010;51.306;3.150;2023-04-06T23:51:59;9.30;99.90
30206;DHT22;17010;51.306;3.150;2023-04-06T23:54:25;9.30;99.90
30206;DHT22;17010;51.306;3.150;2023-04-06T23:56:52;9.30;99.90
30206;DHT22;17010;51.306;3.150;2023-04-06T23:59:18;9.20;99.90
